createdAt,value
2018-12-17T00:36:38.480Z,2.29
2018-12-17T00:39:09.536Z,2.30
2018-12-17T00:41:40.358Z,2.35
2018-12-17T00:44:11.068Z,2.28
2018-12-17T00:46:42.182Z,2.14
2018-12-17T00:49:12.822Z,2.24
2018-12-17T00:51:43.800Z,2.19
2018-12-17T00:54:14.834Z,2.13
2018-12-17T00:56:46.053Z,2.16
2018-12-17T00:59:17.547Z,2.29
2018-12-17T01:01:48.299Z,2.23
2018-12-17T01:04:19.886Z,2.24
2018-12-17T01:06:50.662Z,2.02
2018-12-17T01:09:21.350Z,1.85
2018-12-17T01:11:52.227Z,1.90
2018-12-17T01:14:23.059Z,1.91
2018-12-17T01:16:53.820Z,1.95
2018-12-17T01:19:24.735Z,1.97
2018-12-17T01:21:55.898Z,1.80
2018-12-17T01:24:27.288Z,1.87
2018-12-17T01:26:58.161Z,1.98
2018-12-17T01:29:29.511Z,1.89
2018-12-17T01:32:00.382Z,1.72
2018-12-17T01:34:32.202Z,1.72
2018-12-17T01:37:03.556Z,1.73
2018-12-17T01:39:34.563Z,1.82
2018-12-17T01:42:05.477Z,1.88
2018-12-17T01:44:36.515Z,1.85
2018-12-17T01:47:07.199Z,1.77
2018-12-17T01:49:37.896Z,1.86
2018-12-17T01:52:08.740Z,1.68
2018-12-17T01:54:39.673Z,1.78
2018-12-17T01:57:10.654Z,1.77
2018-12-17T01:59:41.748Z,1.77
2018-12-17T02:02:12.888Z,1.82
2018-12-17T02:04:43.530Z,1.64
2018-12-17T02:07:15.284Z,1.75
2018-12-17T02:09:46.372Z,1.79
2018-12-17T02:12:17.404Z,1.81
2018-12-17T02:14:48.415Z,1.75
2018-12-17T02:17:19.804Z,1.78
2018-12-17T02:19:50.919Z,1.72
2018-12-17T02:22:22.386Z,1.76
2018-12-17T02:24:53.459Z,1.78
2018-12-17T02:27:24.871Z,1.72
2018-12-17T02:29:55.598Z,1.68
2018-12-17T02:32:26.552Z,1.62
2018-12-17T02:34:58.172Z,1.61
2018-12-17T02:37:29.328Z,1.68
2018-12-17T02:40:00.229Z,1.71
2018-12-17T02:42:31.052Z,1.64
2018-12-17T02:45:02.014Z,1.69
2018-12-17T02:47:34.454Z,1.72
2018-12-17T02:50:06.295Z,1.57
2018-12-17T02:52:38.453Z,1.58
2018-12-17T02:55:09.365Z,1.42
2018-12-17T02:57:40.069Z,1.66
2018-12-17T03:00:11.443Z,1.67
2018-12-17T03:02:44.225Z,1.70
2018-12-17T03:05:14.961Z,1.62
2018-12-17T03:07:45.918Z,1.70
2018-12-17T03:10:16.769Z,1.72
2018-12-17T03:12:47.641Z,1.60
2018-12-17T03:15:22.475Z,1.54
2018-12-17T03:17:53.284Z,1.65
2018-12-17T03:20:24.422Z,1.63
2018-12-17T03:22:55.352Z,1.73
2018-12-17T03:25:26.264Z,1.71
2018-12-17T03:27:57.128Z,1.73
2018-12-17T03:30:27.962Z,1.68
2018-12-17T03:32:59.314Z,1.70
2018-12-17T03:35:31.680Z,1.75
2018-12-17T03:38:02.814Z,1.68
2018-12-17T03:40:33.626Z,1.60
2018-12-17T03:43:04.582Z,1.60
2018-12-17T03:45:35.571Z,1.60
2018-12-17T03:48:06.668Z,1.58
2018-12-17T03:50:38.496Z,1.52
2018-12-17T03:53:09.440Z,1.54
2018-12-17T03:55:44.396Z,1.57
2018-12-17T03:58:15.117Z,1.65
2018-12-17T04:00:47.324Z,1.66
2018-12-17T04:03:18.232Z,1.71
2018-12-17T04:05:49.201Z,1.68
2018-12-17T04:08:20.054Z,1.72
2018-12-17T04:10:52.141Z,1.71
2018-12-17T04:13:23.184Z,1.61
2018-12-17T04:15:53.979Z,1.63
2018-12-17T04:18:24.751Z,1.69
2018-12-17T04:20:55.514Z,1.74
2018-12-17T04:23:26.397Z,1.77
2018-12-17T04:25:59.429Z,1.82
2018-12-17T04:28:30.372Z,1.81
2018-12-17T04:31:01.224Z,1.77
2018-12-17T04:33:32.020Z,1.91
2018-12-17T04:36:03.008Z,1.91
2018-12-17T04:38:33.936Z,1.93
2018-12-17T04:41:04.922Z,1.93
2018-12-17T04:43:35.749Z,2.03
2018-12-17T04:46:07.379Z,1.94
2018-12-17T04:48:38.101Z,1.88
2018-12-17T04:51:09.015Z,1.99
2018-12-17T04:53:39.692Z,1.98
2018-12-17T04:56:10.998Z,2.01
2018-12-17T04:58:41.707Z,2.00
2018-12-17T05:01:12.735Z,1.95
2018-12-17T05:03:43.407Z,1.91
2018-12-17T05:06:14.262Z,1.96
2018-12-17T05:08:45.158Z,2.01
2018-12-17T05:11:16.046Z,2.10
2018-12-17T05:13:47.147Z,2.02
2018-12-17T05:16:18.196Z,2.03
2018-12-17T05:18:49.026Z,1.97
2018-12-17T05:21:19.909Z,2.00
2018-12-17T05:23:51.071Z,2.01
2018-12-17T05:26:21.819Z,1.98
2018-12-17T05:28:53.495Z,2.04
2018-12-17T05:31:24.173Z,2.07
2018-12-17T05:33:54.909Z,2.03
2018-12-17T05:36:25.553Z,2.00
2018-12-17T05:38:56.249Z,1.97
2018-12-17T05:41:26.918Z,2.04
2018-12-17T05:43:57.587Z,2.11
2018-12-17T05:46:28.825Z,2.06
2018-12-17T05:48:59.583Z,2.07
2018-12-17T05:51:30.327Z,2.11
2018-12-17T05:54:00.979Z,2.15
2018-12-17T05:56:31.790Z,2.12
2018-12-17T05:59:02.531Z,2.15
2018-12-17T06:01:33.145Z,2.19
2018-12-17T06:04:03.939Z,2.22
2018-12-17T06:06:34.804Z,2.17
2018-12-17T06:09:11.297Z,2.17
2018-12-17T06:11:42.706Z,2.21
2018-12-17T06:14:13.601Z,2.17
2018-12-17T06:16:46.034Z,2.19
2018-12-17T06:19:16.795Z,2.24
2018-12-17T06:21:47.737Z,2.24
2018-12-17T06:24:18.617Z,2.32
2018-12-17T06:26:49.341Z,2.34
2018-12-17T06:29:20.083Z,2.36
2018-12-17T06:31:50.747Z,2.44
2018-12-17T06:34:21.422Z,2.50
2018-12-17T06:36:53.929Z,2.52
2018-12-17T06:39:24.956Z,2.50
2018-12-17T06:41:55.813Z,2.56
2018-12-17T06:45:45.344Z,2.49
2018-12-17T06:48:17.499Z,2.56
2018-12-17T06:50:48.583Z,2.52
2018-12-17T06:53:19.449Z,2.67
2018-12-17T06:55:50.253Z,2.63
2018-12-17T06:58:21.405Z,2.73
2018-12-17T07:00:52.335Z,2.69
2018-12-17T07:03:24.507Z,2.80
2018-12-17T07:05:55.872Z,2.86
2018-12-17T07:08:26.853Z,2.86
2018-12-17T07:10:58.002Z,2.85
2018-12-17T07:13:28.759Z,2.89
2018-12-17T07:15:59.597Z,2.88
2018-12-17T07:18:30.637Z,2.87
2018-12-17T07:21:01.445Z,2.87
2018-12-17T07:23:32.317Z,2.86
2018-12-17T07:26:03.365Z,2.88
2018-12-17T07:28:34.279Z,2.86
2018-12-17T07:31:05.528Z,2.96
2018-12-17T07:33:36.447Z,2.99
2018-12-17T07:36:07.300Z,3.03
2018-12-17T07:38:39.179Z,3.06
2018-12-17T07:41:10.557Z,3.12
2018-12-17T07:43:41.979Z,3.12
2018-12-17T07:46:13.039Z,3.12
2018-12-17T07:48:44.499Z,3.12
2018-12-17T07:51:15.401Z,3.15
2018-12-17T07:53:46.237Z,3.21
2018-12-17T07:56:16.996Z,3.30
2018-12-17T07:58:47.969Z,3.28
2018-12-17T08:01:18.873Z,3.35
2018-12-17T08:04:14.783Z,3.30
2018-12-17T08:06:45.598Z,3.39
2018-12-17T08:09:16.451Z,3.36
2018-12-17T08:11:47.322Z,3.40
2018-12-17T08:14:18.242Z,3.45
2018-12-17T08:16:49.633Z,3.48
2018-12-17T08:19:21.043Z,3.41
2018-12-17T08:21:53.062Z,3.44
2018-12-17T08:24:24.103Z,3.39
2018-12-17T08:26:55.862Z,3.34
2018-12-17T08:29:26.790Z,3.29
2018-12-17T08:31:57.641Z,3.33
2018-12-17T08:34:28.594Z,3.42
2018-12-17T08:36:59.467Z,3.44
2018-12-17T08:39:30.344Z,3.49
2018-12-17T08:42:01.507Z,3.59
2018-12-17T08:44:32.402Z,3.71
2018-12-17T08:47:03.376Z,3.79
2018-12-17T08:49:34.396Z,3.87
2018-12-17T08:52:05.524Z,3.89
2018-12-17T08:54:36.372Z,3.92
2018-12-17T08:57:07.322Z,4.01
2018-12-17T08:59:38.216Z,4.04
2018-12-17T09:02:09.072Z,4.03
2018-12-17T09:04:39.953Z,4.06
2018-12-17T09:07:10.857Z,4.12
2018-12-17T09:09:41.699Z,4.12
2018-12-17T09:12:12.668Z,4.10
2018-12-17T09:14:43.624Z,4.11
2018-12-17T09:17:15.726Z,4.02
2018-12-17T09:19:46.602Z,3.98
2018-12-17T09:22:17.500Z,3.98
2018-12-17T09:24:48.354Z,3.95
2018-12-17T09:27:19.332Z,3.97
2018-12-17T09:29:50.240Z,3.96
2018-12-17T09:32:21.146Z,3.94
2018-12-17T09:34:52.098Z,3.99
2018-12-17T09:37:22.870Z,3.96
2018-12-17T09:39:53.703Z,4.02
2018-12-17T09:42:24.625Z,4.00
2018-12-17T09:44:55.850Z,4.05
2018-12-17T09:47:26.700Z,4.11
2018-12-17T09:49:57.622Z,4.08
2018-12-17T09:52:28.708Z,4.02
2018-12-17T09:54:59.648Z,4.07
2018-12-17T09:57:30.604Z,3.99
2018-12-17T10:00:01.577Z,4.10
2018-12-17T10:02:34.014Z,4.14
2018-12-17T10:05:04.992Z,4.12
2018-12-17T10:07:35.738Z,4.20
2018-12-17T10:10:07.260Z,4.23
2018-12-17T10:18:01.568Z,4.27
2018-12-17T10:23:15.424Z,4.28
2018-12-17T10:25:46.534Z,4.30
2018-12-17T10:28:17.429Z,4.31
2018-12-17T10:30:48.292Z,4.36
2018-12-17T10:33:19.100Z,4.33
2018-12-17T10:35:49.926Z,4.37
2018-12-17T10:38:20.788Z,4.38
2018-12-17T10:40:52.392Z,4.40
2018-12-17T10:43:23.572Z,4.31
2018-12-17T10:45:54.555Z,4.34
2018-12-17T10:48:25.511Z,4.16
2018-12-17T10:50:56.354Z,4.28
2018-12-17T10:56:09.901Z,4.28
2018-12-17T10:58:40.867Z,4.25
2018-12-17T11:04:05.252Z,4.27
2018-12-17T11:06:36.293Z,4.27
2018-12-17T11:09:09.317Z,4.29
2018-12-17T11:11:42.403Z,4.38
2018-12-17T11:16:54.257Z,4.42
2018-12-17T11:19:26.257Z,4.39
2018-12-17T11:21:57.119Z,4.39
2018-12-17T11:24:27.916Z,4.39
2018-12-17T11:26:58.960Z,4.36
2018-12-17T11:29:29.917Z,4.31
2018-12-17T11:32:00.818Z,4.35
2018-12-17T11:34:32.828Z,4.37
2018-12-17T11:37:04.534Z,4.35
2018-12-17T11:39:35.426Z,4.42
2018-12-17T11:44:47.271Z,4.46
2018-12-17T11:49:57.864Z,4.53
2018-12-17T11:52:28.775Z,4.53
2018-12-17T11:54:59.651Z,4.55
2018-12-17T11:58:34.964Z,4.49
2018-12-17T12:03:50.148Z,4.54
2018-12-17T12:06:21.081Z,4.48
2018-12-17T12:08:51.972Z,4.46
2018-12-17T12:11:22.773Z,4.47
2018-12-17T12:13:53.751Z,4.54
2018-12-17T12:16:25.795Z,4.57
2018-12-17T12:21:39.718Z,4.54
2018-12-17T12:24:10.542Z,4.56
2018-12-17T12:26:41.359Z,4.58
2018-12-17T12:29:12.573Z,4.56
2018-12-17T12:31:43.454Z,4.51
2018-12-17T12:34:14.362Z,4.56
2018-12-17T12:36:45.188Z,4.52
2018-12-17T12:39:16.122Z,4.52
2018-12-17T12:41:47.029Z,4.49
2018-12-17T12:44:17.876Z,4.55
2018-12-17T12:46:48.875Z,4.55
2018-12-17T12:49:19.720Z,4.54
2018-12-17T12:51:50.653Z,4.57
2018-12-17T12:54:22.018Z,4.61
2018-12-17T12:56:52.861Z,4.59
2018-12-17T12:59:23.716Z,4.60
2018-12-17T13:01:54.631Z,4.55
2018-12-17T13:04:25.637Z,4.53
2018-12-17T13:06:56.586Z,4.58
2018-12-17T13:09:27.501Z,4.53
2018-12-17T13:11:58.353Z,4.59
2018-12-17T13:14:29.206Z,4.53
2018-12-17T13:17:02.462Z,4.60
2018-12-17T13:19:33.289Z,4.68
2018-12-17T13:22:04.268Z,4.68
2018-12-17T13:24:35.042Z,4.76
2018-12-17T13:27:05.894Z,4.78
2018-12-17T13:29:36.888Z,4.82
2018-12-17T13:32:07.756Z,4.82
2018-12-17T13:34:38.612Z,4.87
2018-12-17T13:37:09.557Z,4.81
2018-12-17T13:39:40.406Z,4.76
2018-12-17T13:42:11.412Z,4.75
2018-12-17T13:44:42.284Z,4.73
2018-12-17T13:52:46.746Z,4.73
2018-12-17T13:58:02.732Z,4.73
2018-12-17T14:00:33.738Z,4.72
2018-12-17T14:03:04.607Z,4.79
2018-12-17T14:08:22.104Z,4.71
2018-12-17T14:10:55.375Z,4.57
2018-12-17T14:13:26.400Z,4.69
2018-12-17T14:18:51.844Z,4.65
2018-12-17T14:21:27.620Z,4.76
2018-12-17T14:23:58.563Z,4.71
2018-12-17T14:26:29.556Z,4.64
2018-12-17T14:31:43.419Z,4.59
2018-12-17T14:34:14.308Z,4.63
2018-12-17T14:36:45.264Z,4.55
2018-12-17T14:42:01.796Z,4.59
2018-12-17T14:44:36.088Z,4.58
2018-12-17T14:49:50.140Z,4.57
2018-12-17T14:55:05.009Z,4.54
2018-12-17T14:57:36.116Z,4.49
2018-12-17T15:00:08.044Z,4.58
2018-12-17T15:02:40.037Z,4.50
2018-12-17T15:05:10.937Z,4.47
2018-12-17T15:07:41.729Z,4.46
2018-12-17T15:12:55.670Z,4.56
2018-12-17T15:18:06.356Z,4.44
2018-12-17T15:20:41.462Z,4.50
2018-12-17T15:23:12.315Z,4.48
2018-12-17T15:25:43.424Z,4.47
2018-12-17T15:28:14.339Z,4.47
2018-12-17T15:33:25.035Z,4.42
2018-12-17T15:38:42.941Z,4.40
2018-12-17T15:41:13.895Z,4.32
2018-12-17T15:43:44.908Z,4.49
2018-12-17T15:46:16.062Z,4.49
2018-12-17T15:48:46.967Z,4.42
2018-12-17T15:51:18.694Z,4.38
2018-12-17T15:53:49.701Z,4.26
2018-12-17T16:01:58.634Z,4.09
2018-12-17T16:10:05.162Z,3.90
2018-12-17T16:12:35.958Z,3.83
2018-12-17T16:15:07.620Z,3.72
2018-12-17T16:17:40.044Z,3.74
2018-12-17T16:20:10.967Z,3.78
2018-12-17T16:22:41.928Z,3.68
2018-12-17T16:25:12.868Z,3.68
2018-12-17T16:27:44.471Z,3.62
2018-12-17T16:30:17.397Z,3.69
2018-12-17T16:32:48.358Z,3.66
2018-12-17T16:35:19.397Z,3.60
2018-12-17T16:37:50.345Z,3.16
2018-12-17T16:40:21.435Z,3.53
2018-12-17T16:42:53.108Z,3.50
2018-12-17T16:45:24.277Z,3.46
2018-12-17T16:47:55.314Z,3.46
2018-12-17T16:50:26.639Z,3.39
2018-12-17T16:52:57.691Z,3.33
2018-12-17T16:55:28.838Z,3.31
2018-12-17T16:57:59.812Z,3.37
2018-12-17T17:00:30.921Z,3.34
2018-12-17T17:03:01.850Z,3.31
2018-12-17T17:05:32.879Z,3.25
2018-12-17T17:11:24.969Z,3.13
2018-12-17T17:13:55.857Z,3.16
2018-12-17T17:16:26.863Z,3.08
2018-12-17T17:18:57.782Z,2.99
2018-12-17T17:21:28.686Z,2.95
2018-12-17T17:23:59.480Z,2.95
2018-12-17T17:26:30.449Z,2.88
2018-12-17T17:29:11.574Z,2.89
2018-12-17T17:31:42.506Z,2.86
2018-12-17T17:34:13.346Z,2.88
2018-12-17T17:36:44.346Z,2.86
2018-12-17T17:39:15.605Z,2.85
2018-12-17T17:41:46.765Z,2.92
2018-12-17T17:44:18.177Z,2.94
2018-12-17T17:47:13.947Z,2.91
2018-12-17T17:49:44.931Z,2.92
2018-12-17T17:52:15.814Z,2.95
2018-12-17T17:54:46.690Z,2.92
2018-12-17T17:57:17.665Z,2.97
2018-12-17T17:59:48.618Z,2.94
2018-12-17T18:02:39.974Z,2.93
2018-12-17T18:12:37.083Z,2.84
2018-12-17T18:15:08.382Z,2.74
2018-12-17T18:17:55.167Z,2.75
2018-12-17T18:20:26.357Z,2.75
2018-12-17T18:22:57.701Z,2.79
2018-12-17T18:25:28.885Z,2.79
2018-12-17T18:27:59.719Z,2.77
2018-12-17T18:30:30.910Z,2.75
2018-12-17T18:33:01.802Z,2.82
2018-12-17T18:36:02.145Z,2.85
2018-12-17T18:38:33.098Z,2.86
2018-12-17T18:44:25.761Z,2.80
2018-12-17T18:46:56.748Z,2.88
2018-12-17T18:49:27.664Z,2.81
2018-12-17T18:51:58.588Z,2.82
2018-12-17T18:54:29.610Z,2.77
2018-12-17T18:57:00.593Z,2.73
2018-12-17T19:00:20.319Z,2.81
2018-12-17T19:02:52.250Z,2.71
2018-12-17T19:05:36.116Z,2.72
2018-12-17T19:08:07.107Z,2.75
2018-12-17T19:10:42.915Z,2.76
2018-12-17T19:13:13.969Z,2.73
2018-12-17T19:15:45.411Z,2.75
2018-12-17T19:18:16.362Z,2.78
2018-12-17T19:21:01.479Z,2.75
2018-12-17T19:23:32.546Z,2.76
2018-12-17T19:26:03.704Z,2.77
2018-12-17T19:28:34.550Z,2.75
2018-12-17T19:31:10.885Z,2.73
2018-12-17T19:37:12.408Z,2.82
2018-12-17T19:39:43.248Z,2.79
2018-12-17T19:42:14.067Z,2.80
2018-12-17T19:44:44.842Z,2.81
2018-12-17T19:47:29.472Z,2.92
2018-12-17T19:50:00.518Z,2.99
2018-12-17T19:52:31.440Z,3.07
2018-12-17T19:55:02.475Z,2.91
2018-12-17T19:57:33.219Z,2.93
2018-12-17T20:00:04.421Z,2.97
2018-12-17T20:02:35.289Z,2.98
2018-12-17T20:05:06.273Z,3.02
2018-12-17T20:07:45.879Z,3.03
2018-12-17T20:10:24.775Z,3.04
2018-12-17T20:13:10.347Z,3.04
2018-12-17T20:15:41.963Z,3.00
2018-12-17T20:18:12.763Z,3.01
2018-12-17T20:20:51.197Z,2.91
2018-12-17T20:23:21.957Z,2.99
2018-12-17T20:25:52.709Z,2.96
2018-12-17T20:28:23.526Z,2.93
2018-12-17T20:30:54.304Z,2.93
2018-12-17T20:33:25.097Z,2.94
2018-12-17T20:36:37.785Z,2.95
2018-12-17T20:42:50.012Z,2.67
2018-12-17T20:45:20.997Z,2.63
2018-12-17T20:47:51.738Z,2.67
2018-12-17T20:51:00.379Z,2.65
2018-12-17T20:53:52.385Z,2.66
2018-12-17T20:56:23.382Z,2.67
2018-12-17T20:59:40.867Z,2.63
2018-12-17T21:02:11.585Z,2.62
2018-12-17T21:04:42.319Z,2.58
2018-12-17T21:07:16.431Z,2.62
2018-12-17T21:09:47.140Z,2.57
2018-12-17T21:12:21.328Z,2.55
2018-12-17T21:14:52.125Z,2.55
2018-12-17T21:17:31.767Z,2.58
2018-12-17T21:20:02.549Z,2.55
2018-12-17T21:22:33.417Z,2.53
2018-12-17T21:25:12.030Z,2.56
2018-12-17T21:28:17.909Z,2.58
2018-12-17T21:30:49.845Z,2.61
2018-12-17T21:33:20.625Z,2.63
2018-12-17T21:35:51.344Z,2.66
2018-12-17T21:38:22.122Z,2.58
2018-12-17T21:41:03.844Z,2.56
2018-12-17T21:43:36.205Z,2.58
2018-12-17T21:46:07.252Z,2.57
2018-12-17T21:48:37.942Z,2.57
2018-12-17T21:51:15.970Z,2.54
2018-12-17T21:53:57.797Z,2.59
2018-12-17T21:56:28.690Z,2.57
2018-12-17T21:59:07.110Z,2.47
2018-12-17T22:01:37.916Z,2.41
2018-12-17T22:04:42.192Z,2.38
2018-12-17T22:07:12.948Z,2.38
2018-12-17T22:09:43.662Z,2.41
2018-12-17T22:12:18.168Z,2.47
2018-12-17T22:14:49.007Z,2.38
2018-12-17T22:17:19.804Z,2.42
2018-12-17T22:19:50.576Z,2.52
2018-12-17T22:22:22.343Z,2.43
2018-12-17T22:24:53.052Z,2.40
2018-12-17T22:27:23.868Z,2.38
2018-12-17T22:29:54.612Z,2.33
2018-12-17T22:32:32.626Z,2.34
2018-12-17T22:35:03.332Z,2.33
2018-12-17T22:41:03.760Z,2.24
2018-12-17T22:43:34.496Z,2.28
2018-12-17T22:46:05.388Z,2.29
2018-12-17T22:48:44.163Z,2.22
2018-12-17T22:51:14.957Z,2.17
2018-12-17T22:53:53.451Z,2.14
2018-12-17T22:56:32.321Z,2.12
2018-12-17T22:59:10.891Z,2.15
2018-12-17T23:01:49.604Z,2.03
2018-12-17T23:04:53.335Z,2.02
2018-12-17T23:07:26.038Z,2.00
2018-12-17T23:10:25.687Z,2.03
2018-12-17T23:13:22.010Z,1.97
2018-12-17T23:16:05.167Z,1.93
2018-12-17T23:18:41.742Z,1.95
2018-12-17T23:21:15.202Z,1.88
2018-12-17T23:23:55.526Z,1.90
2018-12-17T23:26:26.433Z,1.99
2018-12-17T23:28:57.299Z,1.92
2018-12-17T23:31:36.630Z,1.88
2018-12-17T23:34:15.584Z,1.91
2018-12-17T23:36:46.473Z,1.85
2018-12-17T23:39:24.882Z,1.84
2018-12-17T23:41:55.868Z,1.89
2018-12-17T23:44:26.534Z,1.87
2018-12-17T23:47:00.927Z,1.85
2018-12-17T23:49:39.414Z,1.82
2018-12-17T23:52:18.112Z,1.85
2018-12-17T23:54:48.954Z,1.87
2018-12-17T23:57:19.610Z,1.85
